Time;durP1;ratioP1;P1;durP2;ratioP2;P2;SDS_P1;SDS_P2;PMS_P1;PMS_P2;Temp;Humidity;BMP_temperature;BMP_pressure;BME280_temperature;BME280_humidity;BME280_pressure;Samples;Min_cycle;Max_cycle;Signal;HPM_P1;HPM_P2
2022/11/25 00:02:21;;;;;;;81.13;28.37;;;2.70;99.90;;;;;;5091033;27;21501;-73
2022/11/25 00:05:10;;;;;;;80.03;29.37;;;2.80;99.90;;;;;;5092711;28;20230;-74
2022/11/25 00:07:58;;;;;;;78.43;29.13;;;2.90;99.90;;;;;;5079475;28;20214;-74
2022/11/25 00:10:47;;;;;;;78.60;27.27;;;2.90;99.90;;;;;;5081834;28;20223;-73
2022/11/25 00:13:36;;;;;;;74.03;27.43;;;2.90;99.90;;;;;;5079370;28;20226;-74
2022/11/25 00:16:26;;;;;;;88.70;31.17;;;2.90;99.90;;;;;;5078186;28;20228;-72
2022/11/25 00:19:15;;;;;;;87.50;30.77;;;3.00;99.90;;;;;;5090750;28;20218;-74
2022/11/25 00:22:03;;;;;;;83.77;30.80;;;3.00;99.90;;;;;;5092530;27;20457;-75
2022/11/25 00:24:52;;;;;;;83.83;30.70;;;3.00;99.90;;;;;;5091341;28;20244;-74
2022/11/25 00:27:44;;;;;;;77.97;29.13;;;3.00;99.90;;;;;;5077901;28;20230;-75
2022/11/25 00:30:32;;;;;;;80.53;29.90;;;3.00;99.90;;;;;;5090971;28;20218;-75
2022/11/25 00:33:22;;;;;;;84.70;30.50;;;3.00;99.90;;;;;;5078532;28;20218;-74
2022/11/25 00:36:16;;;;;;;84.83;28.93;;;3.00;99.90;;;;;;5091660;28;20218;-75
2022/11/25 00:39:06;;;;;;;84.93;29.80;;;3.00;99.90;;;;;;5094227;28;20253;-75
2022/11/25 00:45:01;;;;;;;78.57;28.63;;;2.90;99.90;;;;;;5096014;28;20780;-73
2022/11/25 00:47:52;;;;;;;87.53;31.50;;;2.60;99.90;;;;;;5081398;28;20859;-70
2022/11/25 00:50:42;;;;;;;81.43;29.63;;;2.70;99.90;;;;;;5093315;28;20226;-72
2022/11/25 00:53:31;;;;;;;81.43;27.90;;;2.90;99.90;;;;;;5076974;28;20230;-74
2022/11/25 00:56:22;;;;;;;78.33;28.80;;;2.80;99.90;;;;;;5091422;28;21052;-74
2022/11/25 00:59:10;;;;;;;74.87;28.37;;;2.90;99.90;;;;;;5088694;28;20729;-74
2022/11/25 01:01:59;;;;;;;82.10;29.63;;;2.90;99.90;;;;;;5091010;27;20355;-74
2022/11/25 01:04:48;;;;;;;83.07;29.77;;;3.10;99.90;;;;;;5076505;28;20227;-74
2022/11/25 01:07:38;;;;;;;76.87;27.97;;;3.10;99.90;;;;;;5077619;28;20229;-74
2022/11/25 01:10:26;;;;;;;85.57;29.23;;;3.10;99.90;;;;;;5077747;28;20271;-74
2022/11/25 01:13:15;;;;;;;84.53;28.70;;;2.80;99.90;;;;;;5089283;28;20250;-74
2022/11/25 01:16:04;;;;;;;82.73;29.47;;;2.90;99.90;;;;;;5090062;28;20225;-74
2022/11/25 01:18:53;;;;;;;79.83;28.57;;;2.90;99.90;;;;;;5090314;28;20242;-73
2022/11/25 01:21:42;;;;;;;71.97;27.03;;;3.00;99.90;;;;;;5076659;28;20276;-73
2022/11/25 01:24:33;;;;;;;81.93;27.10;;;3.00;99.90;;;;;;5077371;28;20245;-73
2022/11/25 01:27:22;;;;;;;77.53;27.87;;;2.90;99.90;;;;;;5076152;28;20239;-73
2022/11/25 01:30:12;;;;;;;78.20;28.33;;;2.80;99.90;;;;;;5077112;28;20248;-74
2022/11/25 01:33:00;;;;;;;74.90;26.83;;;2.80;99.90;;;;;;5076536;28;20230;-72
2022/11/25 01:35:49;;;;;;;75.30;27.07;;;2.90;99.90;;;;;;5079711;28;20233;-74
2022/11/25 01:38:38;;;;;;;75.70;27.27;;;2.90;99.90;;;;;;5079137;28;20229;-72
2022/11/25 01:41:30;;;;;;;82.43;28.60;;;2.90;99.90;;;;;;5076437;28;20274;-74
2022/11/25 01:44:22;;;;;;;83.83;28.27;;;2.80;99.90;;;;;;5072141;28;20226;-74
2022/11/25 01:47:15;;;;;;;84.57;29.00;;;2.60;99.90;;;;;;5090024;28;20238;-73
2022/11/25 01:50:09;;;;;;;81.37;28.47;;;2.70;99.90;;;;;;5076465;28;20221;-72
2022/11/25 01:52:59;;;;;;;87.57;30.30;;;2.70;99.90;;;;;;5074786;28;20719;-75
2022/11/25 01:55:51;;;;;;;85.73;29.13;;;2.60;99.90;;;;;;5073855;28;20248;-73
2022/11/25 01:58:42;;;;;;;80.07;27.87;;;2.70;99.90;;;;;;5072434;28;20232;-74
2022/11/25 02:01:31;;;;;;;93.53;28.70;;;2.80;99.90;;;;;;5074012;28;20228;-73
2022/11/25 02:04:21;;;;;;;95.43;30.60;;;2.90;99.90;;;;;;5086641;28;20231;-75
2022/11/25 02:07:16;;;;;;;96.70;32.37;;;2.90;99.90;;;;;;5078616;28;20293;-74
2022/11/25 02:10:08;;;;;;;89.87;30.83;;;2.90;99.90;;;;;;5086723;28;20233;-75
2022/11/25 02:12:58;;;;;;;93.53;30.50;;;2.90;99.90;;;;;;5075339;28;20882;-75
2022/11/25 02:15:48;;;;;;;101.10;31.40;;;2.90;99.90;;;;;;5072498;28;20222;-73
2022/11/25 02:18:36;;;;;;;96.23;32.10;;;2.70;99.90;;;;;;5088400;28;20967;-74
2022/11/25 02:21:31;;;;;;;88.10;29.63;;;2.80;99.90;;;;;;5075673;28;20455;-75
2022/11/25 02:24:27;;;;;;;89.90;28.87;;;2.90;99.90;;;;;;5089268;28;20677;-74
2022/11/25 02:27:18;;;;;;;92.07;30.33;;;3.00;99.90;;;;;;5073154;28;20258;-74
2022/11/25 02:30:09;;;;;;;90.10;28.43;;;2.80;99.90;;;;;;5076704;28;20217;-73
2022/11/25 02:32:59;;;;;;;87.00;26.90;;;2.80;99.90;;;;;;5090973;28;20236;-73
2022/11/25 02:35:52;;;;;;;89.40;28.93;;;2.80;99.90;;;;;;5091789;28;20226;-74
2022/11/25 02:38:45;;;;;;;87.57;29.03;;;2.80;99.90;;;;;;5089360;27;20312;-74
2022/11/25 02:41:38;;;;;;;90.57;28.70;;;2.80;99.90;;;;;;5077013;28;21061;-75
2022/11/25 02:44:30;;;;;;;91.13;30.20;;;2.80;99.90;;;;;;5078102;28;20276;-75
2022/11/25 02:47:19;;;;;;;87.10;28.00;;;2.90;99.90;;;;;;5089866;27;20226;-74
2022/11/25 02:50:08;;;;;;;87.17;28.97;;;3.00;99.90;;;;;;5078321;28;21431;-73
2022/11/25 02:52:57;;;;;;;85.47;29.77;;;2.90;99.90;;;;;;5075736;28;20230;-73
2022/11/25 02:55:46;;;;;;;89.60;29.80;;;2.80;99.90;;;;;;5087473;28;20998;-73
2022/11/25 02:58:35;;;;;;;98.93;31.27;;;2.70;99.90;;;;;;5080441;28;20231;-72
2022/11/25 03:01:26;;;;;;;91.83;28.83;;;2.70;99.90;;;;;;5093459;28;20282;-72
2022/11/25 03:04:14;;;;;;;99.57;30.60;;;2.60;99.90;;;;;;5081220;28;20830;-76
2022/11/25 03:07:04;;;;;;;107.03;32.43;;;2.60;99.90;;;;;;5078805;28;20229;-73
2022/11/25 03:09:53;;;;;;;101.70;32.80;;;2.70;99.90;;;;;;5076759;28;20229;-74
2022/11/25 03:12:42;;;;;;;109.60;33.13;;;2.90;99.90;;;;;;5078598;28;20230;-74
2022/11/25 03:15:30;;;;;;;91.23;30.87;;;2.90;99.90;;;;;;5081523;28;20230;-73
2022/11/25 03:18:22;;;;;;;99.63;32.40;;;2.70;99.90;;;;;;5079134;28;20234;-72
2022/11/25 03:21:11;;;;;;;101.60;32.37;;;2.70;99.90;;;;;;5081485;28;20219;-74
2022/11/25 03:23:59;;;;;;;99.43;31.50;;;2.80;99.90;;;;;;5076437;27;20218;-73
2022/11/25 03:26:48;;;;;;;95.23;29.63;;;2.90;99.90;;;;;;5075995;28;20231;-74
2022/11/25 03:29:38;;;;;;;91.73;29.83;;;2.90;99.90;;;;;;5075696;28;20585;-76
2022/11/25 03:32:27;;;;;;;82.67;28.10;;;3.00;99.90;;;;;;5074846;28;20238;-75
2022/11/25 03:35:17;;;;;;;80.40;28.40;;;3.00;99.90;;;;;;5074842;28;20260;-74
2022/11/25 03:38:06;;;;;;;76.57;28.93;;;2.90;99.90;;;;;;5075167;28;20222;-76
2022/11/25 03:40:58;;;;;;;76.30;29.03;;;2.90;99.90;;;;;;5076639;28;20251;-76
2022/11/25 03:43:47;;;;;;;78.50;29.27;;;2.90;99.90;;;;;;5060072;28;20230;-77
2022/11/25 03:46:37;;;;;;;89.90;30.17;;;3.00;99.90;;;;;;5077123;28;21599;-76
2022/11/25 03:49:27;;;;;;;80.27;28.87;;;2.80;99.90;;;;;;5075903;28;20366;-77
2022/11/25 03:52:17;;;;;;;78.17;27.80;;;2.90;99.90;;;;;;5079372;28;20232;-76
2022/11/25 03:55:07;;;;;;;82.53;29.57;;;2.80;99.90;;;;;;5075172;28;20227;-73
2022/11/25 03:57:56;;;;;;;83.23;30.17;;;2.90;99.90;;;;;;5075238;28;20344;-73
2022/11/25 04:00:46;;;;;;;79.77;30.73;;;3.00;99.90;;;;;;5075773;28;20720;-74
2022/11/25 04:03:34;;;;;;;83.23;30.27;;;3.00;99.90;;;;;;5074297;28;20229;-77
2022/11/25 04:06:23;;;;;;;85.43;30.83;;;2.90;99.90;;;;;;5073230;28;20286;-74
2022/11/25 04:09:15;;;;;;;87.07;30.33;;;2.90;99.90;;;;;;5075530;28;20218;-74
2022/11/25 04:15:19;;;;;;;92.73;32.60;;;3.10;99.90;;;;;;5090873;28;20226;-74
2022/11/25 04:18:12;;;;;;;89.43;32.93;;;3.00;99.90;;;;;;5079998;28;20222;-74
2022/11/25 04:21:01;;;;;;;95.83;32.03;;;3.00;99.90;;;;;;5080819;28;20215;-75
2022/11/25 04:23:50;;;;;;;89.70;32.00;;;3.00;99.90;;;;;;5073160;27;20290;-74
2022/11/25 04:26:40;;;;;;;94.63;34.00;;;2.80;99.90;;;;;;5076811;28;20710;-73
2022/11/25 04:29:29;;;;;;;87.50;31.60;;;3.00;99.90;;;;;;5092173;28;20599;-77
2022/11/25 04:32:21;;;;;;;96.70;33.60;;;3.00;99.90;;;;;;5076294;28;21356;-74
2022/11/25 04:35:10;;;;;;;91.80;32.67;;;3.00;99.90;;;;;;5092310;28;20878;-75
2022/11/25 04:38:00;;;;;;;89.30;31.47;;;3.10;99.90;;;;;;5091341;28;20761;-75
2022/11/25 04:40:51;;;;;;;88.30;32.60;;;3.10;99.90;;;;;;5078900;28;20231;-75
2022/11/25 04:43:44;;;;;;;80.87;30.77;;;3.10;99.90;;;;;;5087111;28;20230;-74
2022/11/25 04:46:39;;;;;;;76.33;29.73;;;3.10;99.90;;;;;;5081254;28;20243;-74
2022/11/25 04:49:28;;;;;;;83.50;32.00;;;3.10;99.90;;;;;;5093454;28;20234;-72
2022/11/25 04:52:17;;;;;;;83.10;31.33;;;3.00;99.90;;;;;;5078196;28;20323;-75
2022/11/25 04:55:07;;;;;;;77.60;31.00;;;3.10;99.90;;;;;;5078344;28;20215;-74
2022/11/25 04:57:56;;;;;;;78.07;30.23;;;3.10;99.90;;;;;;5079754;28;20438;-74
2022/11/25 05:00:45;;;;;;;80.70;31.50;;;3.00;99.90;;;;;;5078051;28;20237;-75
2022/11/25 05:03:35;;;;;;;78.67;31.03;;;3.10;99.90;;;;;;5079466;28;20309;-75
2022/11/25 05:06:24;;;;;;;79.53;30.97;;;3.10;99.90;;;;;;5080442;28;20290;-75
2022/11/25 05:09:13;;;;;;;80.70;31.37;;;3.10;99.90;;;;;;5080602;28;20217;-73
2022/11/25 05:12:05;;;;;;;85.33;31.43;;;3.10;99.90;;;;;;5076171;28;20316;-74
2022/11/25 05:14:54;;;;;;;84.13;31.70;;;3.10;99.90;;;;;;5092271;28;20253;-73
2022/11/25 05:17:45;;;;;;;85.07;32.87;;;3.20;99.90;;;;;;5077186;28;20230;-72
2022/11/25 05:20:35;;;;;;;80.60;32.87;;;3.10;99.90;;;;;;5076107;28;20582;-74
2022/11/25 05:23:24;;;;;;;89.53;32.03;;;3.10;99.90;;;;;;5076887;28;20226;-74
2022/11/25 05:26:14;;;;;;;77.97;31.70;;;3.10;99.90;;;;;;5077514;28;20306;-73
2022/11/25 05:29:06;;;;;;;80.57;29.47;;;3.20;99.90;;;;;;5092175;28;20230;-74
2022/11/25 05:31:55;;;;;;;74.93;27.57;;;3.00;99.90;;;;;;5080056;28;21486;-74
2022/11/25 05:34:46;;;;;;;78.00;28.43;;;3.00;99.90;;;;;;5080097;28;20222;-74
2022/11/25 05:37:36;;;;;;;73.30;27.93;;;3.00;99.90;;;;;;5078021;28;20602;-75
2022/11/25 05:40:26;;;;;;;68.23;27.27;;;3.10;99.90;;;;;;5075260;28;20230;-75
2022/11/25 05:43:22;;;;;;;65.83;26.23;;;3.10;99.90;;;;;;5075204;28;20790;-74
2022/11/25 05:46:11;;;;;;;63.50;25.13;;;3.20;99.90;;;;;;5082914;28;20233;-73
2022/11/25 05:49:06;;;;;;;68.23;26.07;;;3.20;99.90;;;;;;5079701;28;20326;-74
2022/11/25 05:51:56;;;;;;;71.43;26.20;;;3.20;99.90;;;;;;5093165;28;20229;-74
2022/11/25 05:54:46;;;;;;;68.83;26.47;;;3.20;99.90;;;;;;5077214;28;20742;-75
2022/11/25 05:57:35;;;;;;;66.37;25.80;;;3.20;99.90;;;;;;5092846;28;20226;-75
2022/11/25 06:00:27;;;;;;;70.00;25.83;;;3.20;99.90;;;;;;5078174;28;20233;-74
2022/11/25 06:03:25;;;;;;;70.10;27.23;;;3.10;99.90;;;;;;5078936;28;20240;-73
2022/11/25 06:06:14;;;;;;;74.17;27.50;;;3.10;99.90;;;;;;5084242;28;21024;-74
2022/11/25 06:09:05;;;;;;;69.80;26.50;;;3.10;99.90;;;;;;5081555;28;20308;-74
2022/11/25 06:11:54;;;;;;;64.23;26.33;;;3.00;99.90;;;;;;5079650;28;20223;-76
2022/11/25 06:14:43;;;;;;;69.17;25.77;;;3.10;99.90;;;;;;5095267;28;21401;-75
2022/11/25 06:17:32;;;;;;;64.27;25.13;;;3.10;99.90;;;;;;5082458;28;20225;-76
2022/11/25 06:20:41;;;;;;;67.57;26.03;;;3.10;99.90;;;;;;5085021;28;20366;-75
2022/11/25 06:23:31;;;;;;;63.03;25.27;;;3.20;99.90;;;;;;5082326;28;20222;-73
2022/11/25 06:26:23;;;;;;;66.17;26.73;;;3.20;99.90;;;;;;5082649;28;20338;-74
2022/11/25 06:29:12;;;;;;;71.47;27.70;;;3.20;99.90;;;;;;5082050;28;20229;-74
2022/11/25 06:32:05;;;;;;;69.40;26.97;;;3.10;99.90;;;;;;5080742;28;20234;-74
2022/11/25 06:35:18;;;;;;;74.10;27.33;;;3.10;99.90;;;;;;5089796;28;20827;-74
2022/11/25 06:38:16;;;;;;;71.80;27.17;;;3.00;99.90;;;;;;5081119;28;20293;-73
2022/11/25 06:41:06;;;;;;;76.20;29.00;;;3.10;99.90;;;;;;5079477;28;20242;-74
2022/11/25 06:43:56;;;;;;;75.20;29.87;;;3.20;99.90;;;;;;5079594;28;20237;-75
2022/11/25 06:46:45;;;;;;;64.40;27.07;;;3.20;99.90;;;;;;5093332;28;20636;-73
2022/11/25 06:49:34;;;;;;;71.47;28.00;;;3.20;99.90;;;;;;5081189;28;20609;-74
2022/11/25 06:52:22;;;;;;;73.87;28.90;;;3.20;99.90;;;;;;5087923;28;20230;-74
2022/11/25 06:55:11;;;;;;;66.70;27.50;;;3.20;99.90;;;;;;5077078;28;20231;-74
2022/11/25 06:58:00;;;;;;;80.10;27.70;;;3.10;99.90;;;;;;5086962;28;20227;-75
2022/11/25 07:01:13;;;;;;;78.50;27.70;;;3.00;99.90;;;;;;5093286;28;21513;-75
2022/11/25 07:04:04;;;;;;;85.17;30.97;;;3.00;99.90;;;;;;5082727;27;20731;-75
2022/11/25 07:06:52;;;;;;;77.70;27.37;;;3.00;99.90;;;;;;5094390;27;20238;-76
2022/11/25 07:09:41;;;;;;;79.60;28.53;;;2.90;99.90;;;;;;5082397;28;20231;-77
2022/11/25 07:12:30;;;;;;;86.07;30.90;;;2.80;99.90;;;;;;5079137;28;20233;-75
2022/11/25 07:15:19;;;;;;;77.53;30.13;;;2.80;99.90;;;;;;5089026;28;20238;-77
2022/11/25 07:18:09;;;;;;;84.77;31.00;;;2.90;99.90;;;;;;5079432;28;20242;-71
2022/11/25 07:21:04;;;;;;;79.73;32.00;;;3.10;99.90;;;;;;5082794;28;20225;-74
2022/11/25 07:23:53;;;;;;;87.50;32.27;;;3.10;99.90;;;;;;5091588;28;20568;-75
2022/11/25 07:26:43;;;;;;;79.07;30.60;;;3.20;99.90;;;;;;5093962;28;21094;-72
2022/11/25 07:29:34;;;;;;;81.13;30.93;;;3.30;99.90;;;;;;5084662;28;20233;-76
2022/11/25 07:32:42;;;;;;;75.53;29.60;;;3.30;99.90;;;;;;5092155;28;20215;-74
2022/11/25 07:35:34;;;;;;;80.00;30.73;;;3.30;99.90;;;;;;5081330;28;20230;-74
2022/11/25 07:38:23;;;;;;;76.93;32.63;;;3.50;99.90;;;;;;5089520;28;20233;-76
2022/11/25 07:41:14;;;;;;;74.33;32.77;;;3.30;99.90;;;;;;5091285;28;20230;-74
2022/11/25 07:44:06;;;;;;;79.20;31.50;;;3.10;99.90;;;;;;5084542;28;20317;-72
2022/11/25 07:47:04;;;;;;;80.73;32.33;;;3.20;99.90;;;;;;5081622;28;20230;-73
2022/11/25 07:49:53;;;;;;;84.80;32.50;;;3.20;99.90;;;;;;5093114;28;20602;-74
2022/11/25 07:52:43;;;;;;;72.97;32.43;;;3.20;99.90;;;;;;5093793;28;20227;-75
2022/11/25 07:55:32;;;;;;;75.07;30.97;;;3.10;99.90;;;;;;5090745;28;20283;-74
2022/11/25 07:58:20;;;;;;;77.27;33.53;;;3.20;99.90;;;;;;5083138;28;20227;-73
2022/11/25 08:01:12;;;;;;;86.90;34.57;;;3.20;99.90;;;;;;5086838;28;20233;-73
2022/11/25 08:04:01;;;;;;;84.60;33.20;;;3.10;99.90;;;;;;5088973;28;20364;-72
2022/11/25 08:06:52;;;;;;;74.37;30.77;;;3.10;99.90;;;;;;5090936;28;20224;-71
2022/11/25 08:09:42;;;;;;;77.40;31.20;;;3.10;99.90;;;;;;5091235;28;20223;-72
2022/11/25 08:12:32;;;;;;;74.07;31.97;;;3.20;99.90;;;;;;5088823;28;20601;-72
2022/11/25 08:15:20;;;;;;;79.07;29.60;;;3.40;99.90;;;;;;5074716;28;20775;-71
2022/11/25 08:18:09;;;;;;;73.87;29.17;;;3.30;99.90;;;;;;5087925;28;20223;-71
2022/11/25 08:21:00;;;;;;;64.03;28.43;;;3.30;99.90;;;;;;5074344;28;20222;-74
2022/11/25 08:23:51;;;;;;;69.90;28.37;;;3.40;99.90;;;;;;5090455;28;20219;-72
2022/11/25 08:26:41;;;;;;;79.90;28.97;;;3.50;99.90;;;;;;5072454;28;20228;-74
2022/11/25 08:29:30;;;;;;;75.30;28.73;;;3.50;99.90;;;;;;5084861;28;21000;-74
2022/11/25 08:32:18;;;;;;;77.27;28.60;;;3.40;99.90;;;;;;5089656;28;20211;-75
2022/11/25 08:35:08;;;;;;;76.40;28.10;;;3.30;99.90;;;;;;5084417;28;20227;-76
2022/11/25 08:37:56;;;;;;;81.10;29.50;;;3.30;99.90;;;;;;5074539;28;20260;-73
2022/11/25 08:40:45;;;;;;;83.03;29.27;;;3.30;99.90;;;;;;5089724;28;20238;-75
2022/11/25 08:43:35;;;;;;;78.23;28.10;;;3.40;99.90;;;;;;5076210;28;20384;-75
2022/11/25 08:46:26;;;;;;;78.30;28.60;;;3.30;99.90;;;;;;5075810;28;20312;-75
2022/11/25 08:49:16;;;;;;;86.80;30.67;;;3.30;99.90;;;;;;5075371;28;21018;-74
2022/11/25 08:52:05;;;;;;;82.57;30.90;;;3.20;99.90;;;;;;5075195;28;20240;-74
2022/11/25 08:54:53;;;;;;;83.27;28.50;;;3.20;99.90;;;;;;5073336;28;20230;-74
2022/11/25 08:57:42;;;;;;;78.07;30.43;;;3.20;99.90;;;;;;5087992;28;20233;-74
2022/11/25 09:00:32;;;;;;;82.90;30.00;;;3.20;99.90;;;;;;5075137;28;21152;-76
2022/11/25 09:03:21;;;;;;;79.97;29.50;;;3.20;99.90;;;;;;5074475;28;20394;-75
2022/11/25 09:06:10;;;;;;;77.87;29.70;;;3.20;99.90;;;;;;5077733;27;20309;-75
2022/11/25 09:09:00;;;;;;;83.77;30.73;;;3.40;99.90;;;;;;5073277;28;20226;-74
2022/11/25 09:11:49;;;;;;;80.53;29.43;;;3.40;99.90;;;;;;5069672;28;20345;-74
2022/11/25 09:14:39;;;;;;;80.73;30.80;;;3.40;99.90;;;;;;5065987;28;21023;-74
2022/11/25 09:17:29;;;;;;;79.73;29.30;;;3.50;99.90;;;;;;5079836;28;20587;-74
2022/11/25 09:20:17;;;;;;;86.63;32.93;;;3.40;99.90;;;;;;5066884;28;20227;-74
2022/11/25 09:23:07;;;;;;;84.33;30.37;;;3.50;99.90;;;;;;5076145;28;20219;-76
2022/11/25 09:25:58;;;;;;;88.37;31.87;;;3.30;99.90;;;;;;5078771;28;20322;-74
2022/11/25 09:28:47;;;;;;;82.13;32.83;;;3.30;99.90;;;;;;5069299;28;20222;-74
2022/11/25 09:31:35;;;;;;;87.87;31.97;;;3.30;99.90;;;;;;5076143;28;20230;-74
2022/11/25 09:34:25;;;;;;;87.60;33.20;;;3.40;99.90;;;;;;5073768;28;20234;-73
2022/11/25 09:37:14;;;;;;;87.03;34.03;;;3.60;99.90;;;;;;5082665;28;20227;-73
2022/11/25 09:40:04;;;;;;;84.27;33.30;;;3.50;99.90;;;;;;5079543;28;20724;-73
2022/11/25 09:49:36;;;;;;;84.00;32.50;;;3.50;99.90;;;;;;5068712;28;20300;-74
2022/11/25 09:52:35;;;;;;;87.47;34.30;;;3.40;99.90;;;;;;5085724;28;20222;-73
2022/11/25 09:55:25;;;;;;;92.50;34.60;;;3.30;99.90;;;;;;5081382;28;20229;-75
2022/11/25 09:58:23;;;;;;;87.77;34.10;;;3.50;99.90;;;;;;5077675;28;20281;-75
2022/11/25 10:01:17;;;;;;;90.40;35.07;;;3.40;99.90;;;;;;5078750;28;20686;-75
2022/11/25 10:04:10;;;;;;;89.43;34.50;;;3.40;99.90;;;;;;5072187;28;20228;-74
2022/11/25 10:07:04;;;;;;;86.27;33.30;;;3.40;99.90;;;;;;5064509;28;20835;-75
2022/11/25 10:09:53;;;;;;;83.60;33.13;;;3.40;99.90;;;;;;5073622;28;20215;-72
2022/11/25 10:12:45;;;;;;;84.13;33.70;;;3.40;99.90;;;;;;5078837;28;20852;-73
2022/11/25 10:15:40;;;;;;;83.60;33.07;;;3.50;99.90;;;;;;5074518;28;20219;-75
2022/11/25 10:18:33;;;;;;;85.23;32.27;;;3.60;99.90;;;;;;5068480;28;20231;-74
2022/11/25 10:21:21;;;;;;;85.67;33.67;;;3.50;99.90;;;;;;5083733;28;20230;-74
2022/11/25 10:24:16;;;;;;;83.57;33.20;;;3.60;99.90;;;;;;5069067;28;20237;-74
2022/11/25 10:27:08;;;;;;;83.70;33.07;;;3.60;99.90;;;;;;5074667;28;20695;-73
2022/11/25 10:30:04;;;;;;;82.87;33.47;;;3.50;99.90;;;;;;5071385;28;20602;-74
2022/11/25 10:32:59;;;;;;;90.90;33.17;;;3.50;99.90;;;;;;5072235;28;20365;-73
2022/11/25 10:35:53;;;;;;;81.70;31.33;;;3.50;99.90;;;;;;5071079;28;20700;-74
2022/11/25 10:38:47;;;;;;;76.70;30.93;;;3.40;99.90;;;;;;5078632;28;20234;-73
2022/11/25 10:41:46;;;;;;;83.23;32.13;;;3.50;99.90;;;;;;5066320;28;20238;-74
2022/11/25 10:44:36;;;;;;;81.37;32.00;;;3.60;99.90;;;;;;5080230;28;20228;-73
2022/11/25 10:47:35;;;;;;;75.47;30.13;;;3.70;99.90;;;;;;5076907;28;20236;-72
2022/11/25 10:50:32;;;;;;;81.83;31.97;;;3.70;99.90;;;;;;5073506;28;20242;-72
2022/11/25 10:53:25;;;;;;;81.33;31.97;;;3.70;99.90;;;;;;5065960;28;20378;-73
2022/11/25 10:56:18;;;;;;;79.37;31.73;;;3.70;99.90;;;;;;5074165;28;20284;-74
2022/11/25 10:59:21;;;;;;;82.40;30.73;;;3.80;99.90;;;;;;5090775;28;20792;-73
2022/11/25 11:02:19;;;;;;;71.67;29.63;;;3.80;99.90;;;;;;5085324;28;20689;-74
2022/11/25 11:05:22;;;;;;;78.73;31.63;;;3.80;99.90;;;;;;5081749;28;20227;-74
2022/11/25 11:08:18;;;;;;;74.80;29.83;;;3.80;99.90;;;;;;5074624;28;21495;-74
2022/11/25 11:11:17;;;;;;;83.53;30.87;;;3.80;99.90;;;;;;5070294;28;20229;-74
2022/11/25 11:14:19;;;;;;;80.57;31.40;;;3.80;99.90;;;;;;5076329;28;20219;-73
2022/11/25 11:17:25;;;;;;;74.90;31.00;;;3.80;99.90;;;;;;5087624;28;20759;-74
2022/11/25 11:20:19;;;;;;;74.43;29.87;;;4.00;99.90;;;;;;5076850;28;20218;-75
2022/11/25 11:23:11;;;;;;;74.23;30.77;;;3.90;99.90;;;;;;5071130;28;20505;-75
2022/11/25 11:26:02;;;;;;;82.20;31.63;;;3.80;99.90;;;;;;5074487;28;20223;-75
2022/11/25 11:28:59;;;;;;;82.40;31.00;;;3.90;99.90;;;;;;5068864;28;20298;-74
2022/11/25 11:31:58;;;;;;;78.77;30.30;;;3.90;99.90;;;;;;5082765;28;20231;-75
2022/11/25 11:35:01;;;;;;;74.87;31.10;;;4.00;99.90;;;;;;5088721;28;20226;-74
2022/11/25 11:37:52;;;;;;;73.20;30.07;;;4.00;99.90;;;;;;5074528;28;20234;-73
2022/11/25 11:40:45;;;;;;;80.93;31.70;;;4.00;99.90;;;;;;5077147;28;20219;-77
2022/11/25 11:43:50;;;;;;;68.07;30.03;;;4.00;99.90;;;;;;5092968;28;20230;-75
2022/11/25 11:46:55;;;;;;;76.77;30.30;;;4.00;99.90;;;;;;5068059;28;20215;-74
2022/11/25 11:50:04;;;;;;;74.70;30.60;;;3.90;99.90;;;;;;5070421;28;20223;-75
2022/11/25 11:52:59;;;;;;;67.90;28.40;;;3.80;99.90;;;;;;5065142;28;20227;-74
2022/11/25 11:55:58;;;;;;;71.60;29.07;;;3.90;99.90;;;;;;5066065;28;20246;-73
2022/11/25 11:59:33;;;;;;;73.97;30.13;;;3.90;99.90;;;;;;5071403;28;20231;-72
2022/11/25 12:02:36;;;;;;;70.37;29.87;;;3.80;99.90;;;;;;5070092;28;20223;-74
2022/11/25 12:05:29;;;;;;;74.90;29.73;;;3.80;99.90;;;;;;5068840;28;20227;-75
2022/11/25 12:08:26;;;;;;;73.77;30.77;;;3.90;99.90;;;;;;5066109;28;20304;-74
2022/11/25 12:11:19;;;;;;;76.50;30.40;;;4.00;99.90;;;;;;5069348;28;20232;-73
2022/11/25 12:14:21;;;;;;;72.30;31.70;;;3.90;99.90;;;;;;5079232;28;20220;-73
2022/11/25 12:17:18;;;;;;;75.87;32.37;;;3.80;99.90;;;;;;5068813;28;20226;-74
2022/11/25 12:20:16;;;;;;;74.60;31.33;;;3.90;99.90;;;;;;5067063;28;20223;-73
2022/11/25 12:23:11;;;;;;;83.70;32.60;;;3.90;99.90;;;;;;5084238;28;20229;-74
2022/11/25 12:26:05;;;;;;;84.37;32.23;;;4.00;99.90;;;;;;5065509;28;20222;-76
2022/11/25 12:28:58;;;;;;;74.33;31.50;;;4.00;99.90;;;;;;5076346;28;20814;-74
2022/11/25 12:31:53;;;;;;;83.80;31.83;;;4.00;99.90;;;;;;5080321;28;20261;-75
2022/11/25 12:34:50;;;;;;;78.80;33.10;;;3.80;99.90;;;;;;5084110;28;20222;-75
2022/11/25 12:37:45;;;;;;;80.83;32.30;;;3.90;99.90;;;;;;5065456;28;20234;-73
2022/11/25 12:40:40;;;;;;;82.40;32.87;;;3.80;99.90;;;;;;5065182;28;20291;-75
2022/11/25 12:43:37;;;;;;;90.50;33.70;;;3.80;99.90;;;;;;5078527;28;20272;-73
2022/11/25 12:46:34;;;;;;;85.00;33.20;;;3.90;99.90;;;;;;5071262;28;20276;-70
2022/11/25 12:49:25;;;;;;;91.23;33.90;;;4.00;99.90;;;;;;5066289;28;20223;-75
2022/11/25 12:53:04;;;;;;;89.40;32.87;;;3.90;99.90;;;;;;5080888;28;20578;-73
2022/11/25 12:55:56;;;;;;;82.43;32.60;;;3.90;99.90;;;;;;5070260;28;20222;-74
2022/11/25 12:58:55;;;;;;;86.20;33.93;;;4.00;99.90;;;;;;5058237;28;20238;-75
2022/11/25 14:36:18;;;;;;;89.50;36.87;;;3.80;99.90;;;;;;5040047;27;20290;-72
2022/11/25 14:39:13;;;;;;;90.20;37.43;;;3.90;99.90;;;;;;5048286;28;20356;-73
2022/11/25 14:42:07;;;;;;;95.17;38.03;;;4.00;99.90;;;;;;5039027;28;20225;-75
2022/11/25 14:44:57;;;;;;;88.20;37.30;;;4.00;99.90;;;;;;5040078;28;20588;-72
2022/11/25 14:47:45;;;;;;;97.53;38.97;;;4.00;99.90;;;;;;5038718;28;20282;-72
2022/11/25 14:50:34;;;;;;;93.43;37.67;;;4.00;99.90;;;;;;5040529;28;20245;-72
2022/11/25 14:53:25;;;;;;;98.20;37.80;;;4.10;99.90;;;;;;5040810;28;20600;-74
2022/11/25 14:56:15;;;;;;;90.03;39.67;;;4.10;99.90;;;;;;5059394;28;20357;-72
2022/11/25 14:59:04;;;;;;;94.70;37.93;;;4.00;99.90;;;;;;5042778;28;20635;-72
2022/11/25 15:01:55;;;;;;;88.97;37.10;;;3.90;99.90;;;;;;5039504;28;21139;-74
2022/11/25 15:04:44;;;;;;;97.17;39.47;;;4.10;99.90;;;;;;5037126;28;20240;-73
2022/11/25 15:07:33;;;;;;;97.90;38.17;;;4.10;99.90;;;;;;5043228;28;20232;-73
2022/11/25 15:10:37;;;;;;;96.97;40.67;;;4.10;99.90;;;;;;5044887;28;20217;-73
2022/11/25 15:13:31;;;;;;;97.67;40.30;;;4.10;99.90;;;;;;5037244;28;21478;-72
2022/11/25 15:16:23;;;;;;;97.27;39.83;;;4.10;99.90;;;;;;5038156;28;20241;-71
2022/11/25 15:19:17;;;;;;;96.67;40.57;;;4.10;99.90;;;;;;5040856;28;20711;-72
2022/11/25 15:22:07;;;;;;;95.90;39.87;;;4.10;99.90;;;;;;5040431;28;20225;-72
2022/11/25 15:25:15;;;;;;;94.60;38.30;;;4.00;99.90;;;;;;5039544;28;20235;-72
2022/11/25 15:28:15;;;;;;;92.97;39.83;;;4.10;99.90;;;;;;5038269;28;20603;-73
2022/11/25 15:31:09;;;;;;;99.97;43.10;;;4.10;99.90;;;;;;5039754;28;20282;-72
2022/11/25 15:34:01;;;;;;;95.70;40.73;;;4.10;99.90;;;;;;5036447;28;20287;-73
2022/11/25 15:36:51;;;;;;;95.30;40.27;;;4.20;99.90;;;;;;5032597;28;20254;-73
2022/11/25 15:39:42;;;;;;;91.83;40.53;;;4.20;99.90;;;;;;5012491;28;20259;-72
2022/11/25 15:42:32;;;;;;;95.77;41.03;;;4.20;99.90;;;;;;5021564;28;20232;-73
2022/11/25 15:45:22;;;;;;;91.67;39.40;;;4.20;99.90;;;;;;5037862;28;20308;-71
2022/11/25 15:48:16;;;;;;;89.60;40.00;;;4.30;99.90;;;;;;5006843;28;21028;-72
2022/11/25 15:51:15;;;;;;;93.53;40.17;;;4.40;99.90;;;;;;5013569;28;20226;-73
2022/11/25 15:54:07;;;;;;;96.73;38.70;;;4.40;99.90;;;;;;5006584;28;20219;-72
2022/11/25 15:57:02;;;;;;;87.83;38.40;;;4.30;99.90;;;;;;5015568;28;20233;-71
2022/11/25 16:00:10;;;;;;;93.53;40.27;;;4.30;99.90;;;;;;5008689;28;20309;-72
2022/11/25 16:03:03;;;;;;;91.53;37.30;;;4.20;99.90;;;;;;5013339;28;20316;-72
2022/11/25 16:05:55;;;;;;;95.63;39.87;;;4.20;99.90;;;;;;5010981;28;20225;-72
2022/11/25 16:08:53;;;;;;;98.43;38.60;;;4.20;99.90;;;;;;5007409;28;20225;-72
2022/11/25 16:11:45;;;;;;;108.47;40.50;;;4.20;99.90;;;;;;5008268;28;20991;-73
2022/11/25 16:14:36;;;;;;;106.17;40.70;;;4.20;99.90;;;;;;5012833;28;20221;-72
2022/11/25 16:17:25;;;;;;;98.80;39.80;;;4.20;99.90;;;;;;5011955;28;20217;-72
2022/11/25 16:20:19;;;;;;;95.40;39.90;;;4.20;99.90;;;;;;5007675;28;20229;-72
2022/11/25 16:23:08;;;;;;;92.60;39.67;;;4.20;99.90;;;;;;5007689;28;20279;-73
2022/11/25 16:26:02;;;;;;;99.33;39.57;;;4.20;99.90;;;;;;5006500;28;21536;-73
2022/11/25 16:28:54;;;;;;;101.80;39.87;;;4.20;99.90;;;;;;5010810;28;20233;-72
2022/11/25 16:31:42;;;;;;;103.63;41.03;;;4.10;99.90;;;;;;5029997;28;20220;-74